createdAt,value
2023-07-03T00:00:19.203Z,99749.06
2023-07-03T00:02:52.470Z,99743.78
2023-07-03T00:05:21.820Z,99742.13
2023-07-03T00:07:49.338Z,99745.38
2023-07-03T00:10:17.713Z,99743.25
2023-07-03T00:12:45.885Z,99743.25
2023-07-03T00:15:13.531Z,99746.12
2023-07-03T00:17:41.507Z,99759.56
2023-07-03T00:20:14.926Z,99754.47
2023-07-03T00:22:44.928Z,99749.13
2023-07-03T00:25:12.181Z,99749.06
2023-07-03T00:27:40.045Z,99746.06
2023-07-03T00:30:08.526Z,99747.66
2023-07-03T00:32:45.614Z,99761.25
2023-07-03T00:35:13.094Z,99762.50
2023-07-03T00:37:40.318Z,99761.38
2023-07-03T00:40:08.556Z,99771.69
2023-07-03T00:42:35.941Z,99769.12
2023-07-03T00:45:06.060Z,99757.16
2023-07-03T00:47:33.724Z,99767.78
2023-07-03T00:50:02.365Z,99761.53
2023-07-03T00:52:30.178Z,99762.47
2023-07-03T00:54:59.196Z,99759.94
2023-07-03T00:57:27.234Z,99765.00
2023-07-03T00:59:54.423Z,99759.47
2023-07-03T01:02:48.761Z,99758.50
2023-07-03T01:05:24.361Z,99766.81
2023-07-03T01:07:52.645Z,99772.53
2023-07-03T01:10:22.428Z,99771.87
2023-07-03T01:12:52.719Z,99772.44
2023-07-03T01:15:28.177Z,99767.72
2023-07-03T01:17:57.542Z,99767.47
2023-07-03T01:20:27.265Z,99765.66
2023-07-03T01:23:24.400Z,99761.06
2023-07-03T01:25:53.143Z,99764.81
2023-07-03T01:28:22.543Z,99759.31
2023-07-03T01:30:50.636Z,99760.78
2023-07-03T01:33:22.861Z,99760.78
2023-07-03T01:35:52.449Z,99753.12
2023-07-03T01:38:21.330Z,99740.03
2023-07-03T01:40:49.617Z,99739.66
2023-07-03T01:43:16.981Z,99730.28
2023-07-03T01:45:46.417Z,99741.31
2023-07-03T01:48:14.311Z,99740.56
2023-07-03T01:50:42.060Z,99744.03
2023-07-03T01:53:25.890Z,99738.50
2023-07-03T01:55:59.073Z,99744.13
2023-07-03T01:58:37.242Z,99750.37
2023-07-03T02:01:06.518Z,99744.91
2023-07-03T02:03:38.669Z,99731.56
2023-07-03T02:06:17.182Z,99741.87
2023-07-03T02:08:45.028Z,99735.13
2023-07-03T02:11:17.140Z,99736.22
2023-07-03T02:13:46.654Z,99744.44
2023-07-03T02:16:16.912Z,99735.88
2023-07-03T02:18:47.839Z,99747.38
2023-07-03T02:21:17.993Z,99747.19
2023-07-03T02:23:45.699Z,99745.34
2023-07-03T02:26:15.420Z,99748.28
2023-07-03T02:28:43.611Z,99753.56
2023-07-03T02:31:12.582Z,99754.00
2023-07-03T02:33:40.811Z,99748.22
2023-07-03T02:36:08.498Z,99750.25
2023-07-03T02:38:35.828Z,99747.56
2023-07-03T02:41:04.991Z,99758.81
2023-07-03T02:43:32.246Z,99748.97
2023-07-03T02:46:05.534Z,99755.41
2023-07-03T02:48:33.468Z,99752.53
2023-07-03T02:51:00.699Z,99757.31
2023-07-03T02:53:28.872Z,99751.97
2023-07-03T02:55:56.950Z,99757.41
2023-07-03T02:58:25.456Z,99755.81
2023-07-03T03:00:54.857Z,99762.44
2023-07-03T03:03:26.412Z,99772.78
2023-07-03T03:05:53.725Z,99770.09
2023-07-03T03:08:24.863Z,99769.53
2023-07-03T03:10:52.850Z,99760.56
2023-07-03T03:13:20.026Z,99768.47
2023-07-03T03:15:48.975Z,99770.09
2023-07-03T03:18:16.793Z,99761.72
2023-07-03T03:20:45.935Z,99764.69
2023-07-03T03:23:13.735Z,99769.91
2023-07-03T03:25:41.311Z,99775.91
2023-07-03T03:28:09.445Z,99768.41
2023-07-03T03:30:37.292Z,99779.25
2023-07-03T03:33:05.228Z,99776.44
2023-07-03T03:35:32.408Z,99787.72
2023-07-03T03:38:00.262Z,99795.37
2023-07-03T03:40:27.748Z,99796.13
2023-07-03T03:42:55.550Z,99796.66
2023-07-03T03:45:22.837Z,99800.47
2023-07-03T03:47:52.494Z,99814.22
2023-07-03T03:50:20.401Z,99814.50
2023-07-03T03:52:47.587Z,99812.84
2023-07-03T03:55:16.157Z,99812.84
2023-07-03T03:57:43.306Z,99820.81
2023-07-03T04:00:18.436Z,99814.44
2023-07-03T04:02:46.266Z,99831.03
2023-07-03T04:05:13.581Z,99830.03
2023-07-03T04:07:40.880Z,99835.91
2023-07-03T04:10:09.454Z,99842.56
2023-07-03T04:12:36.796Z,99844.97
2023-07-03T04:15:04.494Z,99845.34
2023-07-03T04:17:47.597Z,99842.38
2023-07-03T04:20:14.977Z,99843.63
2023-07-03T04:22:43.611Z,99843.00
2023-07-03T04:25:11.645Z,99845.06
2023-07-03T04:27:38.817Z,99838.03
2023-07-03T04:30:07.612Z,99845.50
2023-07-03T04:32:36.604Z,99842.97
2023-07-03T04:35:07.714Z,99847.97
2023-07-03T04:37:36.037Z,99837.94
2023-07-03T04:40:03.519Z,99838.47
2023-07-03T04:42:33.248Z,99834.72
2023-07-03T04:45:03.309Z,99841.16
2023-07-03T04:47:39.462Z,99850.09
2023-07-03T04:50:15.988Z,99839.56
2023-07-03T04:52:45.239Z,99850.72
2023-07-03T04:55:13.894Z,99848.03
2023-07-03T04:57:43.420Z,99848.81
2023-07-03T05:00:16.380Z,99848.53
2023-07-03T05:02:48.691Z,99848.87
2023-07-03T05:05:17.672Z,99875.38
2023-07-03T05:07:45.987Z,99885.72
2023-07-03T05:10:15.412Z,99896.59
2023-07-03T05:12:47.657Z,99898.66
2023-07-03T05:15:16.935Z,99909.87
2023-07-03T05:17:47.149Z,99903.34
2023-07-03T05:20:15.586Z,99915.31
2023-07-03T05:22:44.263Z,99925.41
2023-07-03T05:25:16.660Z,99935.84
2023-07-03T05:27:44.182Z,99935.66
2023-07-03T05:30:12.516Z,99934.81
2023-07-03T05:32:40.285Z,99948.78
2023-07-03T05:35:08.255Z,99950.81
2023-07-03T05:37:37.784Z,99953.56
2023-07-03T05:40:08.364Z,99964.75
2023-07-03T05:42:36.965Z,99970.69
2023-07-03T05:45:05.851Z,99969.59
2023-07-03T05:47:33.346Z,99968.63
2023-07-03T05:50:00.773Z,99982.44
2023-07-03T05:52:27.990Z,99971.09
2023-07-03T05:54:58.076Z,99966.38
2023-07-03T05:57:27.036Z,99978.03
2023-07-03T05:59:55.886Z,99975.06
2023-07-03T06:02:23.193Z,99978.13
2023-07-03T06:04:50.779Z,99985.47
2023-07-03T06:07:18.904Z,99985.06
2023-07-03T06:09:46.847Z,99990.62
2023-07-03T06:12:14.199Z,99991.75
2023-07-03T06:14:41.697Z,99991.09
2023-07-03T06:17:08.928Z,99981.53
2023-07-03T06:19:36.524Z,99973.62
2023-07-03T06:22:03.816Z,99963.09
2023-07-03T06:24:30.995Z,99973.84
2023-07-03T06:26:59.148Z,99971.28
2023-07-03T06:29:26.911Z,99962.59
2023-07-03T06:31:54.143Z,99979.19
2023-07-03T06:34:22.025Z,99966.38
2023-07-03T06:36:50.378Z,99954.03
2023-07-03T06:39:17.583Z,99959.16
2023-07-03T06:41:46.902Z,99963.31
2023-07-03T06:44:17.764Z,99963.81
2023-07-03T06:46:45.773Z,99979.38
2023-07-03T06:49:14.194Z,99956.63
2023-07-03T06:51:42.263Z,99965.06
2023-07-03T06:54:11.811Z,99976.16
2023-07-03T06:56:39.514Z,99984.19
2023-07-03T06:59:07.256Z,99990.03
2023-07-03T07:01:35.928Z,99980.97
2023-07-03T07:04:04.665Z,99978.94
2023-07-03T07:06:32.730Z,99968.41
2023-07-03T07:09:01.044Z,99968.03
2023-07-03T07:11:30.523Z,99969.87
2023-07-03T07:14:00.517Z,99975.22
2023-07-03T07:16:33.143Z,99971.25
2023-07-03T07:19:06.019Z,99961.28
2023-07-03T07:21:35.742Z,99946.47
2023-07-03T07:24:15.594Z,99962.69
2023-07-03T07:26:45.672Z,99970.47
2023-07-03T07:29:13.374Z,99968.63
2023-07-03T07:31:42.440Z,99965.19
2023-07-03T07:34:12.485Z,99954.53
2023-07-03T07:36:41.166Z,99948.47
2023-07-03T07:39:09.533Z,99955.00
2023-07-03T07:41:37.353Z,99958.81
2023-07-03T07:44:05.757Z,99969.41
2023-07-03T07:46:33.874Z,99963.97
2023-07-03T07:49:02.307Z,99965.75
2023-07-03T07:51:30.258Z,99955.53
2023-07-03T07:53:58.470Z,99955.50
2023-07-03T07:56:27.786Z,99954.38
2023-07-03T07:58:57.763Z,99957.06
2023-07-03T08:01:25.713Z,99952.78
2023-07-03T08:03:53.258Z,99963.00
2023-07-03T08:06:20.570Z,99960.38
2023-07-03T08:08:52.192Z,99970.16
2023-07-03T08:11:19.908Z,99975.41
2023-07-03T08:13:47.824Z,99975.53
2023-07-03T08:16:17.233Z,99970.87
2023-07-03T08:18:49.683Z,99964.13
2023-07-03T08:21:19.275Z,99968.22
2023-07-03T08:23:46.879Z,99968.25
2023-07-03T08:26:20.447Z,99971.88
2023-07-03T08:28:48.349Z,99974.16
2023-07-03T08:31:16.083Z,99971.47
2023-07-03T08:33:43.324Z,99970.34
2023-07-03T08:38:42.334Z,99966.97
2023-07-03T08:41:13.203Z,99968.13
2023-07-03T08:47:17.792Z,99974.31
2023-07-03T08:49:46.687Z,99979.47
2023-07-03T08:52:20.608Z,99980.13
2023-07-03T08:54:50.260Z,99974.53
2023-07-03T08:57:18.131Z,99974.91
2023-07-03T08:59:46.298Z,99975.06
2023-07-03T09:02:38.936Z,99968.38
2023-07-03T09:05:30.648Z,99966.50
2023-07-03T09:08:05.456Z,99971.91
2023-07-03T09:10:37.220Z,99972.91
2023-07-03T09:13:13.231Z,99976.50
2023-07-03T09:15:55.467Z,99973.53
2023-07-03T09:18:29.338Z,99971.63
2023-07-03T09:20:59.361Z,99975.38
2023-07-03T09:23:30.391Z,99962.13
2023-07-03T09:26:22.652Z,99973.50
2023-07-03T09:32:26.514Z,99981.28
2023-07-03T09:35:03.742Z,99970.28
2023-07-03T09:37:31.157Z,99974.88
2023-07-03T09:40:00.467Z,99986.84
2023-07-03T09:42:29.161Z,99981.28
2023-07-03T09:44:56.973Z,99982.31
2023-07-03T09:47:30.433Z,99983.13
2023-07-03T09:50:07.799Z,99977.87
2023-07-03T09:52:59.531Z,99989.06
2023-07-03T09:55:39.413Z,99992.31
2023-07-03T09:58:17.510Z,99988.16
2023-07-03T10:00:50.410Z,99979.03
2023-07-03T10:03:30.977Z,99978.37
2023-07-03T10:11:44.665Z,99977.13
2023-07-03T10:14:21.377Z,99974.62
2023-07-03T10:16:51.731Z,99975.81
2023-07-03T10:19:21.483Z,99979.25
2023-07-03T10:21:49.272Z,99961.19
2023-07-03T10:24:16.710Z,99961.44
2023-07-03T10:26:49.674Z,99966.19
2023-07-03T10:29:26.794Z,99963.81
2023-07-03T10:32:03.491Z,99970.06
2023-07-03T10:34:50.281Z,99958.50
2023-07-03T10:37:22.210Z,99966.22
2023-07-03T10:40:17.484Z,99959.03
2023-07-03T10:42:58.178Z,99964.03
2023-07-03T10:45:26.954Z,99955.84
2023-07-03T10:47:59.455Z,99952.03
2023-07-03T10:50:33.208Z,99963.50
2023-07-03T10:53:28.739Z,99950.94
2023-07-03T10:56:04.641Z,99967.34
2023-07-03T10:58:38.521Z,99968.94
2023-07-03T11:01:25.585Z,99970.09
2023-07-03T11:04:24.520Z,99976.25
2023-07-03T11:07:22.783Z,99967.81
2023-07-03T11:09:57.071Z,99966.91
2023-07-03T11:12:33.919Z,99969.63
2023-07-03T11:15:07.599Z,99968.41
2023-07-03T11:17:35.602Z,99971.59
2023-07-03T11:20:10.345Z,99966.97
2023-07-03T11:22:44.362Z,99973.41
2023-07-03T11:25:21.578Z,99975.56
2023-07-03T11:28:12.688Z,99974.66
2023-07-03T11:30:43.446Z,99975.34
2023-07-03T11:33:14.609Z,99969.94
2023-07-03T11:35:52.461Z,99960.22
2023-07-03T11:40:55.003Z,99961.34
2023-07-03T11:43:43.331Z,99976.06
2023-07-03T11:46:24.808Z,99953.63
2023-07-03T11:48:57.726Z,99959.09
2023-07-03T11:51:36.563Z,99961.63
2023-07-03T11:54:16.589Z,99960.91
2023-07-03T11:56:48.044Z,99959.53
2023-07-03T11:59:24.579Z,99945.19
2023-07-03T12:01:54.452Z,99954.69
2023-07-03T12:04:50.232Z,99953.44
2023-07-03T12:07:23.874Z,99948.69
2023-07-03T12:09:52.555Z,99955.63
2023-07-03T12:12:27.809Z,99956.37
2023-07-03T12:15:02.240Z,99954.03
2023-07-03T12:17:43.520Z,99958.91
2023-07-03T12:20:20.699Z,99955.84
2023-07-03T12:22:52.201Z,99947.81
2023-07-03T12:25:27.731Z,99955.75
2023-07-03T12:28:12.643Z,99950.28
2023-07-03T12:30:42.179Z,99956.50
2023-07-03T12:33:20.062Z,99953.34
2023-07-03T12:35:49.770Z,99950.09
2023-07-03T12:38:17.959Z,99945.22
2023-07-03T12:40:46.449Z,99942.00
2023-07-03T12:43:18.960Z,99945.69
2023-07-03T12:45:52.958Z,99942.72
2023-07-03T12:48:24.695Z,99946.47
2023-07-03T12:50:56.799Z,99945.94
2023-07-03T12:53:30.529Z,99946.75
2023-07-03T12:56:01.680Z,99939.41
2023-07-03T12:58:29.908Z,99937.50
2023-07-03T13:01:08.896Z,99937.22
2023-07-03T13:03:40.369Z,99941.03
2023-07-03T13:06:35.597Z,99935.66
2023-07-03T13:09:07.520Z,99929.62
2023-07-03T13:11:43.464Z,99929.31
2023-07-03T13:14:16.802Z,99929.56
2023-07-03T13:16:46.465Z,99927.94
2023-07-03T13:19:34.611Z,99928.12
2023-07-03T13:22:09.155Z,99926.16
2023-07-03T13:24:48.616Z,99920.72
2023-07-03T13:27:22.139Z,99919.09
2023-07-03T13:29:52.593Z,99914.25
2023-07-03T13:32:24.809Z,99911.06
2023-07-03T13:34:59.114Z,99911.06
2023-07-03T13:37:30.035Z,99919.25
2023-07-03T13:40:01.643Z,99908.66
2023-07-03T13:42:31.862Z,99913.53
2023-07-03T13:44:59.312Z,99907.22
2023-07-03T13:47:29.518Z,99909.72
2023-07-03T13:49:57.718Z,99908.31
2023-07-03T13:52:25.317Z,99916.53
2023-07-03T13:54:53.914Z,99922.25
2023-07-03T13:57:21.815Z,99914.34
2023-07-03T13:59:49.325Z,99910.53
2023-07-03T14:02:17.339Z,99914.06
2023-07-03T14:04:46.599Z,99913.25
2023-07-03T14:07:14.753Z,99908.13
2023-07-03T14:09:42.186Z,99903.69
2023-07-03T14:12:13.683Z,99915.56
2023-07-03T14:14:41.166Z,99906.59
2023-07-03T14:17:08.578Z,99908.31
2023-07-03T14:19:37.170Z,99913.25
2023-07-03T14:22:05.561Z,99913.81
2023-07-03T14:24:36.053Z,99908.06
2023-07-03T14:27:07.015Z,99907.47
2023-07-03T14:29:35.078Z,99914.91
2023-07-03T14:32:02.553Z,99911.06
2023-07-03T14:34:30.096Z,99911.06
2023-07-03T14:36:59.483Z,99910.00
2023-07-03T14:39:26.703Z,99919.00
2023-07-03T14:41:55.191Z,99916.00
2023-07-03T14:44:22.481Z,99913.78
2023-07-03T14:46:50.343Z,99912.38
2023-07-03T14:49:18.483Z,99909.41
2023-07-03T14:51:46.865Z,99904.38
2023-07-03T14:54:17.041Z,99900.66
2023-07-03T14:56:46.009Z,99897.53
2023-07-03T14:59:13.153Z,99896.19
2023-07-03T15:05:14.423Z,99905.19
2023-07-03T15:07:42.666Z,99896.72
2023-07-03T15:10:11.089Z,99897.72
2023-07-03T15:12:41.458Z,99889.59
2023-07-03T15:15:09.809Z,99889.63
2023-07-03T15:17:37.226Z,99882.38
2023-07-03T15:20:05.879Z,99884.31
2023-07-03T15:22:40.824Z,99878.63
2023-07-03T15:25:08.449Z,99884.50
2023-07-03T15:31:07.175Z,99886.37
2023-07-03T15:33:36.284Z,99878.84
2023-07-03T15:36:04.201Z,99879.41
2023-07-03T15:38:35.366Z,99873.13
2023-07-03T15:41:03.969Z,99873.94
2023-07-03T15:43:33.913Z,99878.78
2023-07-03T15:46:10.868Z,99876.34
2023-07-03T15:52:18.194Z,99874.62
2023-07-03T15:54:52.142Z,99866.47
2023-07-03T16:04:21.331Z,99870.41
2023-07-03T16:06:49.266Z,99869.03
2023-07-03T16:09:16.839Z,99873.00
2023-07-03T16:11:43.994Z,99870.81
2023-07-03T16:14:11.500Z,99868.94
2023-07-03T16:16:41.531Z,99870.00
2023-07-03T16:19:10.170Z,99871.31
2023-07-03T16:21:37.939Z,99865.78
2023-07-03T16:24:08.439Z,99877.78
2023-07-03T16:26:37.616Z,99869.59
2023-07-03T16:29:10.016Z,99862.22
2023-07-03T16:32:01.286Z,99874.44
2023-07-03T16:34:28.780Z,99875.41
2023-07-03T16:36:58.585Z,99870.56
2023-07-03T16:39:29.101Z,99876.38
2023-07-03T16:45:48.389Z,99875.56
2023-07-03T16:48:16.793Z,99882.62
2023-07-03T16:50:44.620Z,99884.75
2023-07-03T16:56:13.649Z,99883.44
2023-07-03T16:58:43.364Z,99892.41
2023-07-03T17:01:15.871Z,99887.28
2023-07-03T17:07:14.375Z,99893.94
2023-07-03T17:10:06.404Z,99887.28
2023-07-03T17:12:50.938Z,99884.66
2023-07-03T17:22:08.464Z,99901.47
2023-07-03T17:24:36.895Z,99895.69
2023-07-03T17:27:05.234Z,99898.97
2023-07-03T17:29:33.386Z,99902.16
2023-07-03T17:32:01.431Z,99894.03
2023-07-03T17:34:30.792Z,99899.75
2023-07-03T17:37:06.268Z,99901.66
2023-07-03T17:39:36.855Z,99905.69
2023-07-03T17:42:27.463Z,99907.47
2023-07-03T17:44:57.613Z,99907.38
2023-07-03T17:47:33.995Z,99909.00
2023-07-03T17:52:57.321Z,99919.50
2023-07-03T17:55:26.632Z,99907.53
2023-07-03T18:04:35.869Z,99906.25
2023-07-03T18:07:06.782Z,99907.31
2023-07-03T18:09:36.773Z,99899.78
2023-07-03T18:12:07.343Z,99904.25
2023-07-03T18:14:38.189Z,99896.00
2023-07-03T18:17:09.284Z,99896.34
2023-07-03T18:19:37.046Z,99897.44
2023-07-03T18:22:05.752Z,99899.84
2023-07-03T18:24:34.587Z,99902.84
2023-07-03T18:27:04.524Z,99895.84
2023-07-03T18:29:35.338Z,99897.94
2023-07-03T18:32:04.210Z,99893.34
2023-07-03T18:34:34.130Z,99896.63
2023-07-03T18:37:02.483Z,99881.78
2023-07-03T18:39:33.460Z,99892.97
2023-07-03T18:42:04.460Z,99891.16
2023-07-03T18:44:32.981Z,99890.78
2023-07-03T18:47:01.500Z,99884.53
2023-07-03T18:49:30.204Z,99896.56
2023-07-03T18:51:58.791Z,99897.84
2023-07-03T18:54:30.769Z,99893.87
2023-07-03T19:00:30.796Z,99911.38
2023-07-03T19:03:00.836Z,99912.88
2023-07-03T19:05:28.470Z,99906.88
2023-07-03T19:07:55.853Z,99908.81
2023-07-03T19:10:24.931Z,99914.09
2023-07-03T19:12:53.101Z,99918.94
2023-07-03T19:15:24.825Z,99927.13
2023-07-03T19:17:53.599Z,99930.41
2023-07-03T19:20:21.188Z,99931.50
2023-07-03T19:22:48.588Z,99933.91
2023-07-03T19:25:20.157Z,99930.59
2023-07-03T19:27:49.387Z,99937.69
2023-07-03T19:30:17.225Z,99933.69
2023-07-03T19:32:46.014Z,99931.97
2023-07-03T19:35:19.410Z,99930.31
2023-07-03T19:37:55.468Z,99927.88
2023-07-03T19:40:26.214Z,99926.69
2023-07-03T19:42:54.490Z,99929.75
2023-07-03T19:45:38.650Z,99930.44
2023-07-03T19:48:11.054Z,99931.53
2023-07-03T19:54:11.289Z,99932.16
2023-07-03T19:56:40.657Z,99940.25
2023-07-03T19:59:11.004Z,99934.78
2023-07-03T20:01:43.612Z,99941.06
2023-07-03T20:04:13.157Z,99939.56
2023-07-03T20:06:41.294Z,99941.88
2023-07-03T20:09:11.379Z,99928.00
2023-07-03T20:11:41.941Z,99932.81
2023-07-03T20:14:10.083Z,99935.94
2023-07-03T20:16:41.260Z,99941.34
2023-07-03T20:19:10.639Z,99942.84
2023-07-03T20:21:38.860Z,99935.56
2023-07-03T20:24:07.407Z,99940.97
2023-07-03T20:26:39.455Z,99937.44
2023-07-03T20:29:08.242Z,99947.63
2023-07-03T20:31:37.614Z,99945.09
2023-07-03T20:34:08.262Z,99942.69
2023-07-03T20:36:36.741Z,99947.91
2023-07-03T20:39:07.015Z,99938.34
2023-07-03T20:41:35.464Z,99939.81
2023-07-03T20:44:05.854Z,99942.19
2023-07-03T20:46:35.791Z,99923.81
2023-07-03T20:49:04.762Z,99930.09
2023-07-03T20:51:34.989Z,99931.78
2023-07-03T20:54:12.149Z,99940.50
2023-07-03T20:56:40.822Z,99940.13
2023-07-03T20:59:09.759Z,99940.53
2023-07-03T21:01:38.363Z,99944.28
2023-07-03T21:04:07.070Z,99947.81
2023-07-03T21:06:37.365Z,99948.22
2023-07-03T21:09:05.167Z,99946.75
2023-07-03T21:11:36.080Z,99943.06
2023-07-03T21:14:06.029Z,99947.22
2023-07-03T21:16:34.477Z,99958.38
2023-07-03T21:19:02.632Z,99951.50
2023-07-03T21:21:32.689Z,99949.69
2023-07-03T21:24:02.450Z,99955.06
2023-07-03T21:26:30.873Z,99957.16
2023-07-03T21:28:58.311Z,99943.97
2023-07-03T21:31:32.852Z,99944.19
2023-07-03T21:34:00.666Z,99950.47
2023-07-03T21:36:29.865Z,99944.88
2023-07-03T21:38:58.861Z,99958.81
2023-07-03T21:44:56.178Z,99954.00
2023-07-03T21:47:24.064Z,99952.16
2023-07-03T21:49:52.011Z,99961.88
2023-07-03T21:52:19.653Z,99953.41
2023-07-03T21:57:19.385Z,99958.34
2023-07-03T21:59:50.427Z,99965.84
2023-07-03T22:02:18.224Z,99968.09
2023-07-03T22:04:46.313Z,99973.06
2023-07-03T22:07:14.524Z,99974.25
2023-07-03T22:09:42.211Z,99975.69
2023-07-03T22:12:10.920Z,99964.75
2023-07-03T22:14:38.647Z,99970.19
2023-07-03T22:17:06.240Z,99969.13
2023-07-03T22:19:36.973Z,99971.66
2023-07-03T22:22:06.651Z,99966.88
2023-07-03T22:24:34.036Z,99974.34
2023-07-03T22:27:01.208Z,99972.28
2023-07-03T22:29:28.873Z,99969.59
2023-07-03T22:31:56.409Z,99971.22
2023-07-03T22:34:24.151Z,99963.16
2023-07-03T22:36:51.246Z,99963.37
2023-07-03T22:39:18.708Z,99967.72
2023-07-03T22:41:47.939Z,99970.19
2023-07-03T22:44:15.546Z,99971.59
2023-07-03T22:46:43.062Z,99960.44
2023-07-03T22:49:23.340Z,99960.63
2023-07-03T22:51:54.402Z,99971.59
2023-07-03T22:54:22.673Z,99977.22
2023-07-03T22:56:50.755Z,99988.00
2023-07-03T22:59:18.729Z,99979.28
2023-07-03T23:01:50.908Z,99965.28
2023-07-03T23:04:20.546Z,99965.34
2023-07-03T23:06:48.630Z,99959.12
2023-07-03T23:09:17.711Z,99954.22
2023-07-03T23:11:45.650Z,99950.47
2023-07-03T23:14:13.440Z,99946.22
2023-07-03T23:16:41.415Z,99947.09
2023-07-03T23:19:09.624Z,99951.00
2023-07-03T23:21:38.235Z,99952.16
2023-07-03T23:24:07.211Z,99952.63
2023-07-03T23:26:34.590Z,99967.91
2023-07-03T23:29:02.422Z,99961.72
2023-07-03T23:31:29.715Z,99960.72
2023-07-03T23:33:57.628Z,99951.38
2023-07-03T23:36:25.739Z,99958.84
2023-07-03T23:38:53.267Z,99956.56
2023-07-03T23:41:21.340Z,99957.84
2023-07-03T23:43:49.959Z,99955.97
2023-07-03T23:46:19.000Z,99949.56
2023-07-03T23:48:47.323Z,99964.25
2023-07-03T23:51:17.051Z,99963.63
2023-07-03T23:53:46.182Z,99956.41
2023-07-03T23:56:17.105Z,99956.78
2023-07-03T23:58:45.821Z,99960.94
